sensor_id;sensor_type;location;lat;lon;timestamp;P1;durP1;ratioP1;P2;durP2;ratioP2
37169;SDS011;23062;13.952;100.608;2024-01-30T00:02:26;23.37;;;17.34;;
37169;SDS011;23062;13.952;100.608;2024-01-30T00:07:14;21.83;;;16.84;;
37169;SDS011;23062;13.952;100.608;2024-01-30T00:12:08;20.36;;;14.86;;
37169;SDS011;23062;13.952;100.608;2024-01-30T00:16:52;21.80;;;15.84;;
37169;SDS011;23062;13.952;100.608;2024-01-30T00:21:33;23.28;;;17.32;;
37169;SDS011;23062;13.952;100.608;2024-01-30T00:26:15;19.27;;;15.33;;
37169;SDS011;23062;13.952;100.608;2024-01-30T00:31:00;21.58;;;15.79;;
37169;SDS011;23062;13.952;100.608;2024-01-30T00:35:40;22.62;;;16.79;;
37169;SDS011;23062;13.952;100.608;2024-01-30T00:40:18;19.73;;;15.32;;
37169;SDS011;23062;13.952;100.608;2024-01-30T00:45:00;21.87;;;16.35;;
37169;SDS011;23062;13.952;100.608;2024-01-30T00:49:45;20.75;;;16.32;;
37169;SDS011;23062;13.952;100.608;2024-01-30T00:54:22;20.64;;;15.42;;
37169;SDS011;23062;13.952;100.608;2024-01-30T00:59:03;21.76;;;16.07;;
37169;SDS011;23062;13.952;100.608;2024-01-30T01:03:39;19.17;;;14.56;;
37169;SDS011;23062;13.952;100.608;2024-01-30T01:08:18;20.93;;;14.61;;
37169;SDS011;23062;13.952;100.608;2024-01-30T01:13:00;20.06;;;15.16;;
37169;SDS011;23062;13.952;100.608;2024-01-30T01:17:38;19.95;;;14.12;;
37169;SDS011;23062;13.952;100.608;2024-01-30T01:22:16;19.57;;;14.16;;
37169;SDS011;23062;13.952;100.608;2024-01-30T01:26:53;21.01;;;15.64;;
37169;SDS011;23062;13.952;100.608;2024-01-30T01:31:33;21.51;;;16.13;;
37169;SDS011;23062;13.952;100.608;2024-01-30T01:36:13;20.35;;;15.10;;
37169;SDS011;23062;13.952;100.608;2024-01-30T01:40:49;20.58;;;15.03;;
37169;SDS011;23062;13.952;100.608;2024-01-30T01:45:32;18.67;;;14.06;;
37169;SDS011;23062;13.952;100.608;2024-01-30T01:50:16;19.23;;;14.58;;
37169;SDS011;23062;13.952;100.608;2024-01-30T01:55:01;19.44;;;14.00;;
37169;SDS011;23062;13.952;100.608;2024-01-30T01:59:37;21.19;;;16.06;;
37169;SDS011;23062;13.952;100.608;2024-01-30T02:04:18;20.66;;;15.43;;
37169;SDS011;23062;13.952;100.608;2024-01-30T02:09:04;20.85;;;16.22;;
37169;SDS011;23062;13.952;100.608;2024-01-30T02:13:43;19.72;;;14.71;;
37169;SDS011;23062;13.952;100.608;2024-01-30T02:18:22;19.48;;;14.65;;
37169;SDS011;23062;13.952;100.608;2024-01-30T02:23:01;22.11;;;16.67;;
37169;SDS011;23062;13.952;100.608;2024-01-30T02:27:40;18.53;;;14.77;;
37169;SDS011;23062;13.952;100.608;2024-01-30T02:32:16;18.78;;;14.84;;
37169;SDS011;23062;13.952;100.608;2024-01-30T02:36:58;17.99;;;13.40;;
37169;SDS011;23062;13.952;100.608;2024-01-30T02:41:42;20.11;;;15.91;;
37169;SDS011;23062;13.952;100.608;2024-01-30T02:46:18;21.65;;;15.92;;
37169;SDS011;23062;13.952;100.608;2024-01-30T02:50:54;19.46;;;14.88;;
37169;SDS011;23062;13.952;100.608;2024-01-30T02:55:39;18.80;;;14.35;;
37169;SDS011;23062;13.952;100.608;2024-01-30T03:00:23;20.48;;;16.25;;
37169;SDS011;23062;13.952;100.608;2024-01-30T03:04:59;23.59;;;17.77;;
37169;SDS011;23062;13.952;100.608;2024-01-30T03:09:37;20.07;;;15.78;;
37169;SDS011;23062;13.952;100.608;2024-01-30T03:14:16;19.78;;;15.71;;
37169;SDS011;23062;13.952;100.608;2024-01-30T03:18:59;21.74;;;16.58;;
37169;SDS011;23062;13.952;100.608;2024-01-30T03:23:44;24.11;;;18.42;;
37169;SDS011;23062;13.952;100.608;2024-01-30T03:28:28;19.88;;;15.02;;
37169;SDS011;23062;13.952;100.608;2024-01-30T03:33:13;18.96;;;15.02;;
37169;SDS011;23062;13.952;100.608;2024-01-30T03:37:58;20.11;;;15.56;;
37169;SDS011;23062;13.952;100.608;2024-01-30T03:42:34;19.26;;;14.60;;
37169;SDS011;23062;13.952;100.608;2024-01-30T03:47:16;20.57;;;16.04;;
37169;SDS011;23062;13.952;100.608;2024-01-30T03:51:53;18.41;;;14.14;;
37169;SDS011;23062;13.952;100.608;2024-01-30T03:56:33;19.16;;;15.07;;
37169;SDS011;23062;13.952;100.608;2024-01-30T04:01:15;20.46;;;15.53;;
37169;SDS011;23062;13.952;100.608;2024-01-30T04:05:52;19.27;;;15.58;;
37169;SDS011;23062;13.952;100.608;2024-01-30T04:10:37;20.82;;;16.10;;
37169;SDS011;23062;13.952;100.608;2024-01-30T04:15:20;20.11;;;15.18;;
37169;SDS011;23062;13.952;100.608;2024-01-30T04:20:00;22.47;;;17.25;;
37169;SDS011;23062;13.952;100.608;2024-01-30T04:24:37;21.52;;;15.77;;
37169;SDS011;23062;13.952;100.608;2024-01-30T04:29:15;21.63;;;16.79;;
37169;SDS011;23062;13.952;100.608;2024-01-30T04:33:52;20.87;;;16.35;;
37169;SDS011;23062;13.952;100.608;2024-01-30T04:38:36;18.60;;;14.79;;
37169;SDS011;23062;13.952;100.608;2024-01-30T04:43:13;21.23;;;16.81;;
37169;SDS011;23062;13.952;100.608;2024-01-30T04:47:51;22.01;;;16.27;;
37169;SDS011;23062;13.952;100.608;2024-01-30T04:52:34;20.04;;;15.89;;
37169;SDS011;23062;13.952;100.608;2024-01-30T04:57:18;20.58;;;15.03;;
37169;SDS011;23062;13.952;100.608;2024-01-30T05:02:01;22.64;;;16.53;;
37169;SDS011;23062;13.952;100.608;2024-01-30T05:06:37;21.18;;;15.55;;
37169;SDS011;23062;13.952;100.608;2024-01-30T05:11:13;22.03;;;16.13;;
37169;SDS011;23062;13.952;100.608;2024-01-30T05:15:56;21.38;;;15.22;;
37169;SDS011;23062;13.952;100.608;2024-01-30T05:20:33;21.22;;;15.69;;
37169;SDS011;23062;13.952;100.608;2024-01-30T05:25:14;24.14;;;17.78;;
37169;SDS011;23062;13.952;100.608;2024-01-30T05:29:58;24.42;;;16.70;;
37169;SDS011;23062;13.952;100.608;2024-01-30T05:34:44;22.35;;;16.21;;
37169;SDS011;23062;13.952;100.608;2024-01-30T05:39:22;20.61;;;14.78;;
37169;SDS011;23062;13.952;100.608;2024-01-30T05:43:57;21.51;;;14.74;;
37169;SDS011;23062;13.952;100.608;2024-01-30T05:48:34;21.78;;;15.70;;
37169;SDS011;23062;13.952;100.608;2024-01-30T05:53:21;23.12;;;16.40;;
37169;SDS011;23062;13.952;100.608;2024-01-30T05:57:57;21.08;;;15.28;;
37169;SDS011;23062;13.952;100.608;2024-01-30T06:02:39;22.04;;;15.38;;
37169;SDS011;23062;13.952;100.608;2024-01-30T06:07:22;21.29;;;14.82;;
37169;SDS011;23062;13.952;100.608;2024-01-30T06:12:05;22.10;;;15.26;;
37169;SDS011;23062;13.952;100.608;2024-01-30T06:16:48;20.25;;;14.83;;
37169;SDS011;23062;13.952;100.608;2024-01-30T06:21:26;23.41;;;15.83;;
37169;SDS011;23062;13.952;100.608;2024-01-30T06:26:09;20.47;;;14.88;;
37169;SDS011;23062;13.952;100.608;2024-01-30T06:30:54;20.18;;;14.81;;
37169;SDS011;23062;13.952;100.608;2024-01-30T06:35:36;21.46;;;14.86;;
37169;SDS011;23062;13.952;100.608;2024-01-30T06:40:21;20.21;;;14.31;;
37169;SDS011;23062;13.952;100.608;2024-01-30T06:45:05;20.11;;;14.42;;
37169;SDS011;23062;13.952;100.608;2024-01-30T06:49:50;18.91;;;13.37;;
37169;SDS011;23062;13.952;100.608;2024-01-30T06:54:31;20.76;;;14.44;;
37169;SDS011;23062;13.952;100.608;2024-01-30T06:59:08;21.86;;;14.57;;
37169;SDS011;23062;13.952;100.608;2024-01-30T07:03:55;22.96;;;15.98;;
37169;SDS011;23062;13.952;100.608;2024-01-30T07:08:35;22.66;;;15.91;;
37169;SDS011;23062;13.952;100.608;2024-01-30T07:13:15;21.48;;;14.86;;
37169;SDS011;23062;13.952;100.608;2024-01-30T07:17:52;21.17;;;14.54;;
37169;SDS011;23062;13.952;100.608;2024-01-30T07:22:29;21.17;;;15.06;;
37169;SDS011;23062;13.952;100.608;2024-01-30T07:27:10;22.32;;;15.06;;
37169;SDS011;23062;13.952;100.608;2024-01-30T07:31:47;24.88;;;16.16;;
37169;SDS011;23062;13.952;100.608;2024-01-30T07:36:32;22.79;;;16.07;;
37169;SDS011;23062;13.952;100.608;2024-01-30T07:41:15;22.98;;;15.60;;
37169;SDS011;23062;13.952;100.608;2024-01-30T07:45:56;21.59;;;14.50;;
37169;SDS011;23062;13.952;100.608;2024-01-30T07:50:47;20.00;;;14.01;;
37169;SDS011;23062;13.952;100.608;2024-01-30T07:55:31;20.34;;;14.47;;
37169;SDS011;23062;13.952;100.608;2024-01-30T08:00:16;21.72;;;15.05;;
37169;SDS011;23062;13.952;100.608;2024-01-30T08:05:02;19.96;;;14.52;;
37169;SDS011;23062;13.952;100.608;2024-01-30T08:09:40;25.75;;;17.14;;
37169;SDS011;23062;13.952;100.608;2024-01-30T08:14:24;21.00;;;15.02;;
37169;SDS011;23062;13.952;100.608;2024-01-30T08:19:09;23.28;;;15.54;;
37169;SDS011;23062;13.952;100.608;2024-01-30T08:23:53;20.96;;;13.97;;
37169;SDS011;23062;13.952;100.608;2024-01-30T08:28:32;22.11;;;15.53;;
37169;SDS011;23062;13.952;100.608;2024-01-30T08:33:09;23.58;;;16.65;;
37169;SDS011;23062;13.952;100.608;2024-01-30T08:37:53;23.18;;;15.65;;
37169;SDS011;23062;13.952;100.608;2024-01-30T08:42:30;23.01;;;15.61;;
37169;SDS011;23062;13.952;100.608;2024-01-30T08:47:14;22.33;;;15.58;;
37169;SDS011;23062;13.952;100.608;2024-01-30T08:51:55;22.01;;;15.50;;
37169;SDS011;23062;13.952;100.608;2024-01-30T08:56:39;23.02;;;15.48;;
37169;SDS011;23062;13.952;100.608;2024-01-30T09:01:18;25.95;;;17.95;;
37169;SDS011;23062;13.952;100.608;2024-01-30T09:06:08;25.32;;;19.20;;
37169;SDS011;23062;13.952;100.608;2024-01-30T09:10:48;26.65;;;20.51;;
37169;SDS011;23062;13.952;100.608;2024-01-30T09:15:26;29.42;;;23.31;;
37169;SDS011;23062;13.952;100.608;2024-01-30T09:20:09;28.62;;;22.74;;
37169;SDS011;23062;13.952;100.608;2024-01-30T09:24:50;29.45;;;22.70;;
37169;SDS011;23062;13.952;100.608;2024-01-30T09:29:37;31.78;;;25.14;;
37169;SDS011;23062;13.952;100.608;2024-01-30T09:34:14;30.08;;;23.60;;
37169;SDS011;23062;13.952;100.608;2024-01-30T09:38:59;29.65;;;22.52;;
37169;SDS011;23062;13.952;100.608;2024-01-30T09:43:41;31.57;;;24.48;;
37169;SDS011;23062;13.952;100.608;2024-01-30T09:48:30;28.18;;;23.00;;
37169;SDS011;23062;13.952;100.608;2024-01-30T09:53:14;29.83;;;23.05;;
37169;SDS011;23062;13.952;100.608;2024-01-30T09:57:57;28.22;;;22.15;;
37169;SDS011;23062;13.952;100.608;2024-01-30T10:02:34;26.79;;;21.17;;
37169;SDS011;23062;13.952;100.608;2024-01-30T10:07:19;25.65;;;19.65;;
37169;SDS011;23062;13.952;100.608;2024-01-30T10:11:59;23.52;;;18.62;;
37169;SDS011;23062;13.952;100.608;2024-01-30T10:16:45;23.74;;;19.17;;
37169;SDS011;23062;13.952;100.608;2024-01-30T10:21:26;28.33;;;22.06;;
37169;SDS011;23062;13.952;100.608;2024-01-30T10:25:59;30.83;;;24.41;;
37169;SDS011;23062;13.952;100.608;2024-01-30T10:30:45;28.48;;;23.32;;
37169;SDS011;23062;13.952;100.608;2024-01-30T10:35:28;31.29;;;24.78;;
37169;SDS011;23062;13.952;100.608;2024-01-30T10:40:12;29.97;;;23.23;;
37169;SDS011;23062;13.952;100.608;2024-01-30T10:44:59;29.13;;;24.59;;
37169;SDS011;23062;13.952;100.608;2024-01-30T10:49:52;28.49;;;22.99;;
37169;SDS011;23062;13.952;100.608;2024-01-30T10:54:39;26.96;;;22.21;;
37169;SDS011;23062;13.952;100.608;2024-01-30T10:59:24;31.04;;;25.69;;
37169;SDS011;23062;13.952;100.608;2024-01-30T11:04:09;33.65;;;26.51;;
37169;SDS011;23062;13.952;100.608;2024-01-30T11:08:46;32.90;;;25.96;;
37169;SDS011;23062;13.952;100.608;2024-01-30T11:13:29;31.66;;;26.36;;
37169;SDS011;23062;13.952;100.608;2024-01-30T11:18:09;36.92;;;30.54;;
37169;SDS011;23062;13.952;100.608;2024-01-30T11:22:53;36.72;;;29.91;;
37169;SDS011;23062;13.952;100.608;2024-01-30T11:27:31;34.67;;;28.04;;
37169;SDS011;23062;13.952;100.608;2024-01-30T11:32:07;33.97;;;28.56;;
37169;SDS011;23062;13.952;100.608;2024-01-30T11:36:53;33.83;;;28.89;;
37169;SDS011;23062;13.952;100.608;2024-01-30T11:41:37;35.11;;;28.99;;
37169;SDS011;23062;13.952;100.608;2024-01-30T11:46:20;32.26;;;28.35;;
37169;SDS011;23062;13.952;100.608;2024-01-30T11:50:58;32.23;;;27.39;;
37169;SDS011;23062;13.952;100.608;2024-01-30T11:55:49;32.57;;;27.85;;
37169;SDS011;23062;13.952;100.608;2024-01-30T12:00:24;32.39;;;29.11;;
37169;SDS011;23062;13.952;100.608;2024-01-30T12:05:07;33.61;;;28.64;;
37169;SDS011;23062;13.952;100.608;2024-01-30T12:09:52;31.86;;;27.41;;
37169;SDS011;23062;13.952;100.608;2024-01-30T12:14:32;33.91;;;28.61;;
37169;SDS011;23062;13.952;100.608;2024-01-30T12:19:22;32.71;;;28.35;;
37169;SDS011;23062;13.952;100.608;2024-01-30T12:24:07;36.45;;;30.77;;
37169;SDS011;23062;13.952;100.608;2024-01-30T12:28:53;34.28;;;28.22;;
37169;SDS011;23062;13.952;100.608;2024-01-30T12:33:43;34.97;;;29.23;;
37169;SDS011;23062;13.952;100.608;2024-01-30T12:38:20;31.61;;;27.82;;
37169;SDS011;23062;13.952;100.608;2024-01-30T12:43:02;27.19;;;23.52;;
37169;SDS011;23062;13.952;100.608;2024-01-30T12:47:45;27.38;;;24.04;;
37169;SDS011;23062;13.952;100.608;2024-01-30T12:52:22;30.35;;;26.51;;
37169;SDS011;23062;13.952;100.608;2024-01-30T12:56:59;29.59;;;25.59;;
37169;SDS011;23062;13.952;100.608;2024-01-30T13:01:44;29.10;;;24.99;;
37169;SDS011;23062;13.952;100.608;2024-01-30T13:06:27;31.33;;;26.81;;
37169;SDS011;23062;13.952;100.608;2024-01-30T13:11:11;29.31;;;25.05;;
37169;SDS011;23062;13.952;100.608;2024-01-30T13:15:57;28.07;;;24.95;;
37169;SDS011;23062;13.952;100.608;2024-01-30T13:20:35;30.77;;;25.93;;
37169;SDS011;23062;13.952;100.608;2024-01-30T13:25:20;29.49;;;25.56;;
37169;SDS011;23062;13.952;100.608;2024-01-30T13:29:58;26.85;;;23.65;;
37169;SDS011;23062;13.952;100.608;2024-01-30T13:34:34;27.71;;;23.55;;
37169;SDS011;23062;13.952;100.608;2024-01-30T13:39:18;27.62;;;24.47;;
37169;SDS011;23062;13.952;100.608;2024-01-30T13:44:02;30.20;;;24.96;;
37169;SDS011;23062;13.952;100.608;2024-01-30T13:48:41;26.88;;;23.55;;
37169;SDS011;23062;13.952;100.608;2024-01-30T13:53:21;28.96;;;24.49;;
37169;SDS011;23062;13.952;100.608;2024-01-30T13:57:58;28.38;;;23.98;;
37169;SDS011;23062;13.952;100.608;2024-01-30T14:02:37;29.42;;;25.81;;
37169;SDS011;23062;13.952;100.608;2024-01-30T14:07:23;28.21;;;23.47;;
37169;SDS011;23062;13.952;100.608;2024-01-30T14:12:00;28.72;;;24.43;;
37169;SDS011;23062;13.952;100.608;2024-01-30T14:16:41;30.86;;;26.32;;
37169;SDS011;23062;13.952;100.608;2024-01-30T14:21:26;30.68;;;26.38;;
37169;SDS011;23062;13.952;100.608;2024-01-30T14:26:02;29.53;;;24.52;;
37169;SDS011;23062;13.952;100.608;2024-01-30T14:30:48;28.95;;;25.43;;
37169;SDS011;23062;13.952;100.608;2024-01-30T14:35:26;29.46;;;25.35;;
37169;SDS011;23062;13.952;100.608;2024-01-30T14:40:06;25.21;;;21.20;;
37169;SDS011;23062;13.952;100.608;2024-01-30T14:44:52;26.70;;;23.14;;
37169;SDS011;23062;13.952;100.608;2024-01-30T14:49:37;25.01;;;21.36;;
37169;SDS011;23062;13.952;100.608;2024-01-30T14:54:23;22.85;;;18.68;;
37169;SDS011;23062;13.952;100.608;2024-01-30T14:59:07;25.53;;;20.63;;
37169;SDS011;23062;13.952;100.608;2024-01-30T15:03:46;25.90;;;20.72;;
37169;SDS011;23062;13.952;100.608;2024-01-30T15:08:30;25.90;;;19.97;;
37169;SDS011;23062;13.952;100.608;2024-01-30T15:13:13;26.34;;;20.45;;
37169;SDS011;23062;13.952;100.608;2024-01-30T15:17:58;22.84;;;18.08;;
37169;SDS011;23062;13.952;100.608;2024-01-30T15:22:42;25.47;;;20.96;;
37169;SDS011;23062;13.952;100.608;2024-01-30T15:27:22;25.06;;;19.63;;
37169;SDS011;23062;13.952;100.608;2024-01-30T15:32:07;24.66;;;19.15;;
37169;SDS011;23062;13.952;100.608;2024-01-30T15:36:53;25.41;;;20.20;;
37169;SDS011;23062;13.952;100.608;2024-01-30T15:41:39;26.58;;;20.25;;
37169;SDS011;23062;13.952;100.608;2024-01-30T15:46:21;24.56;;;18.76;;
37169;SDS011;23062;13.952;100.608;2024-01-30T15:51:04;27.59;;;20.26;;
37169;SDS011;23062;13.952;100.608;2024-01-30T15:55:42;25.62;;;19.27;;
37169;SDS011;23062;13.952;100.608;2024-01-30T16:00:26;27.45;;;20.84;;
37169;SDS011;23062;13.952;100.608;2024-01-30T16:05:10;24.43;;;19.34;;
37169;SDS011;23062;13.952;100.608;2024-01-30T16:09:58;26.87;;;20.32;;
37169;SDS011;23062;13.952;100.608;2024-01-30T16:14:35;26.39;;;19.33;;
37169;SDS011;23062;13.952;100.608;2024-01-30T16:19:20;27.00;;;19.86;;
37169;SDS011;23062;13.952;100.608;2024-01-30T16:23:57;29.90;;;22.31;;
37169;SDS011;23062;13.952;100.608;2024-01-30T16:28:42;30.69;;;22.88;;
37169;SDS011;23062;13.952;100.608;2024-01-30T16:33:25;30.71;;;22.39;;
37169;SDS011;23062;13.952;100.608;2024-01-30T16:38:09;27.31;;;21.30;;
37169;SDS011;23062;13.952;100.608;2024-01-30T16:42:54;29.54;;;22.35;;
37169;SDS011;23062;13.952;100.608;2024-01-30T16:47:37;30.29;;;22.90;;
37169;SDS011;23062;13.952;100.608;2024-01-30T16:52:14;26.41;;;20.45;;
37169;SDS011;23062;13.952;100.608;2024-01-30T16:56:55;29.51;;;22.96;;
37169;SDS011;23062;13.952;100.608;2024-01-30T17:01:38;30.24;;;21.52;;
37169;SDS011;23062;13.952;100.608;2024-01-30T17:06:23;25.89;;;19.95;;
37169;SDS011;23062;13.952;100.608;2024-01-30T17:11:07;30.86;;;22.54;;
37169;SDS011;23062;13.952;100.608;2024-01-30T17:15:44;29.30;;;21.04;;
37169;SDS011;23062;13.952;100.608;2024-01-30T17:20:28;27.85;;;21.06;;
37169;SDS011;23062;13.952;100.608;2024-01-30T17:25:06;30.17;;;22.50;;
37169;SDS011;23062;13.952;100.608;2024-01-30T17:29:51;25.68;;;20.03;;
37169;SDS011;23062;13.952;100.608;2024-01-30T17:34:36;27.26;;;20.04;;
37169;SDS011;23062;13.952;100.608;2024-01-30T17:39:20;27.28;;;20.04;;
37169;SDS011;23062;13.952;100.608;2024-01-30T17:43:56;28.87;;;21.56;;
37169;SDS011;23062;13.952;100.608;2024-01-30T17:48:37;26.86;;;19.06;;
37169;SDS011;23062;13.952;100.608;2024-01-30T17:53:14;30.66;;;21.61;;
37169;SDS011;23062;13.952;100.608;2024-01-30T17:57:58;23.77;;;18.06;;
37169;SDS011;23062;13.952;100.608;2024-01-30T18:02:43;24.37;;;17.58;;
37169;SDS011;23062;13.952;100.608;2024-01-30T18:07:27;25.58;;;18.12;;
37169;SDS011;23062;13.952;100.608;2024-01-30T18:12:04;24.00;;;17.11;;
37169;SDS011;23062;13.952;100.608;2024-01-30T18:16:42;22.38;;;16.09;;
37169;SDS011;23062;13.952;100.608;2024-01-30T18:21:19;22.76;;;16.06;;
37169;SDS011;23062;13.952;100.608;2024-01-30T18:25:57;23.03;;;17.13;;
37169;SDS011;23062;13.952;100.608;2024-01-30T18:30:41;23.42;;;16.59;;
37169;SDS011;23062;13.952;100.608;2024-01-30T18:35:24;22.35;;;16.08;;
37169;SDS011;23062;13.952;100.608;2024-01-30T18:40:09;22.50;;;17.13;;
37169;SDS011;23062;13.952;100.608;2024-01-30T18:44:48;24.55;;;17.62;;
37169;SDS011;23062;13.952;100.608;2024-01-30T18:49:31;23.97;;;17.10;;
37169;SDS011;23062;13.952;100.608;2024-01-30T18:54:17;21.38;;;16.10;;
37169;SDS011;23062;13.952;100.608;2024-01-30T18:59:01;23.35;;;17.58;;
37169;SDS011;23062;13.952;100.608;2024-01-30T19:03:38;23.46;;;17.61;;
37169;SDS011;23062;13.952;100.608;2024-01-30T19:08:22;22.91;;;17.10;;
37169;SDS011;23062;13.952;100.608;2024-01-30T19:13:08;23.99;;;17.61;;
37169;SDS011;23062;13.952;100.608;2024-01-30T19:17:50;24.51;;;18.12;;
37169;SDS011;23062;13.952;100.608;2024-01-30T19:22:31;24.99;;;18.61;;
37169;SDS011;23062;13.952;100.608;2024-01-30T19:27:15;24.45;;;18.10;;
37169;SDS011;23062;13.952;100.608;2024-01-30T19:32:00;23.35;;;17.58;;
37169;SDS011;23062;13.952;100.608;2024-01-30T19:36:37;23.24;;;17.56;;
37169;SDS011;23062;13.952;100.608;2024-01-30T19:41:13;24.23;;;17.55;;
37169;SDS011;23062;13.952;100.608;2024-01-30T19:45:52;22.14;;;16.54;;
37169;SDS011;23062;13.952;100.608;2024-01-30T19:50:36;23.07;;;17.51;;
37169;SDS011;23062;13.952;100.608;2024-01-30T19:55:18;25.18;;;18.03;;
37169;SDS011;23062;13.952;100.608;2024-01-30T20:00:01;21.54;;;16.01;;
37169;SDS011;23062;13.952;100.608;2024-01-30T20:04:38;23.01;;;17.00;;
37169;SDS011;23062;13.952;100.608;2024-01-30T20:09:22;23.09;;;17.52;;
37169;SDS011;23062;13.952;100.608;2024-01-30T20:14:05;22.40;;;16.48;;
37169;SDS011;23062;13.952;100.608;2024-01-30T20:18:50;21.95;;;16.49;;
37169;SDS011;23062;13.952;100.608;2024-01-30T20:23:34;24.89;;;18.46;;
37169;SDS011;23062;13.952;100.608;2024-01-30T20:28:20;21.87;;;16.47;;
37169;SDS011;23062;13.952;100.608;2024-01-30T20:33:04;24.29;;;18.44;;
37169;SDS011;23062;13.952;100.608;2024-01-30T20:37:45;24.72;;;18.42;;
37169;SDS011;23062;13.952;100.608;2024-01-30T20:42:22;25.72;;;18.91;;
37169;SDS011;23062;13.952;100.608;2024-01-30T20:47:03;24.63;;;18.89;;
37169;SDS011;23062;13.952;100.608;2024-01-30T20:51:49;25.13;;;18.89;;
37169;SDS011;23062;13.952;100.608;2024-01-30T20:56:25;23.98;;;17.37;;
37169;SDS011;23062;13.952;100.608;2024-01-30T21:01:11;24.46;;;19.35;;
37169;SDS011;23062;13.952;100.608;2024-01-30T21:05:53;29.35;;;21.31;;
37169;SDS011;23062;13.952;100.608;2024-01-30T21:10:38;25.84;;;19.32;;
37169;SDS011;23062;13.952;100.608;2024-01-30T21:15:14;26.21;;;19.79;;
37169;SDS011;23062;13.952;100.608;2024-01-30T21:19:51;27.12;;;21.25;;
37169;SDS011;23062;13.952;100.608;2024-01-30T21:24:28;29.09;;;21.90;;
37169;SDS011;23062;13.952;100.608;2024-01-30T21:29:05;28.15;;;21.79;;
37169;SDS011;23062;13.952;100.608;2024-01-30T21:33:49;28.93;;;22.62;;
37169;SDS011;23062;13.952;100.608;2024-01-30T21:38:33;25.72;;;21.16;;
37169;SDS011;23062;13.952;100.608;2024-01-30T21:43:13;24.42;;;21.06;;
37169;SDS011;23062;13.952;100.608;2024-01-30T21:47:51;25.42;;;21.93;;
37169;SDS011;23062;13.952;100.608;2024-01-30T21:52:31;26.10;;;21.41;;
37169;SDS011;23062;13.952;100.608;2024-01-30T21:57:13;26.21;;;22.28;;
37169;SDS011;23062;13.952;100.608;2024-01-30T22:01:57;24.97;;;21.35;;
37169;SDS011;23062;13.952;100.608;2024-01-30T22:06:39;25.77;;;22.75;;
37169;SDS011;23062;13.952;100.608;2024-01-30T22:11:24;25.18;;;21.40;;
37169;SDS011;23062;13.952;100.608;2024-01-30T22:16:09;24.73;;;20.81;;
37169;SDS011;23062;13.952;100.608;2024-01-30T22:20:55;26.32;;;21.26;;
37169;SDS011;23062;13.952;100.608;2024-01-30T22:25:31;26.68;;;22.66;;
37169;SDS011;23062;13.952;100.608;2024-01-30T22:30:08;26.11;;;22.15;;
37169;SDS011;23062;13.952;100.608;2024-01-30T22:34:52;23.43;;;19.76;;
37169;SDS011;23062;13.952;100.608;2024-01-30T22:39:35;23.77;;;20.68;;
37169;SDS011;23062;13.952;100.608;2024-01-30T22:44:18;25.16;;;22.13;;
37169;SDS011;23062;13.952;100.608;2024-01-30T22:49:01;25.52;;;21.17;;
37169;SDS011;23062;13.952;100.608;2024-01-30T22:53:46;23.97;;;21.20;;
37169;SDS011;23062;13.952;100.608;2024-01-30T22:58:22;27.91;;;25.53;;
37169;SDS011;23062;13.952;100.608;2024-01-30T23:03:04;26.88;;;24.09;;
37169;SDS011;23062;13.952;100.608;2024-01-30T23:07:40;24.99;;;23.18;;
37169;SDS011;23062;13.952;100.608;2024-01-30T23:12:23;26.05;;;23.25;;
37169;SDS011;23062;13.952;100.608;2024-01-30T23:17:06;23.63;;;22.66;;
37169;SDS011;23062;13.952;100.608;2024-01-30T23:21:49;24.02;;;22.21;;
37169;SDS011;23062;13.952;100.608;2024-01-30T23:26:26;24.91;;;24.34;;
37169;SDS011;23062;13.952;100.608;2024-01-30T23:31:09;23.73;;;23.32;;
37169;SDS011;23062;13.952;100.608;2024-01-30T23:35:49;24.65;;;24.19;;
37169;SDS011;23062;13.952;100.608;2024-01-30T23:40:29;23.96;;;24.10;;
37169;SDS011;23062;13.952;100.608;2024-01-30T23:45:06;25.06;;;25.38;;
37169;SDS011;23062;13.952;100.608;2024-01-30T23:49:50;26.32;;;27.22;;
37169;SDS011;23062;13.952;100.608;2024-01-30T23:54:34;27.11;;;26.43;;
37169;SDS011;23062;13.952;100.608;2024-01-30T23:59:18;31.50;;;31.69;;
